Latest Weather Observations for Taree Airport

IDN60801

Issued at 11:03 pm EST Wednesday 25 May 2016 (issued every 30 minutes, with the page automatically refreshed every 10 minutes)

About weather observations | Map of weather stations | Latest weather observations for NSW | Other Formats
Station Details ID: 060141 Name: TAREE AIRPORT AWS Lat: -31.89 Lon: 152.51 Height: 8.0 m
Data from the previous 72 hours. | See also: Recent months at Taree Airport
Date/Time
EST
Temp
°C
App
Temp
°C
Dew
Point
Rel
Hum
%
Delta-T
°C
Wind Press
QNH
hPa
Press
MSL
hPa
Rain
since 9 am
mm
Dir
 
Spd
km/h
Gust
km/h
Spd
kts
Gust
kts
25/11:00pm 8.1 7.1 5.6 84 1.1 CALM 0 0 0 0 1014.1 1014.1 0.0
25/10:30pm 8.5 6.7 5.4 81 1.4 WNW 4 7 2 4 1014.3 1014.3 0.0
25/10:00pm 8.7 7.7 5.4 80 1.5 CALM 0 0 0 0 1014.7 1014.7 0.0
25/09:30pm 9.6 8.1 6.7 82 1.4 WSW 4 7 2 4 1015.0 1015.0 0.0
25/09:00pm 10.1 8.5 6.3 77 1.8 W 4 6 2 3 1015.1 1015.1 0.0
25/08:30pm 10.6 8.7 6.6 76 1.9 W 6 7 3 4 1015.0 1015.0 0.0
25/08:00pm 10.5 9.6 6.1 74 2.0 CALM 0 0 0 0 1015.0 1015.0 0.0
25/07:30pm 11.7 10.8 6.0 68 2.7 CALM 0 0 0 0 1014.8 1014.8 0.0
25/07:00pm 11.9 11.0 6.0 67 2.8 CALM 0 0 0 0 1014.8 1014.8 0.0
25/06:30pm 12.7 11.7 5.8 63 3.2 CALM 0 0 0 0 1014.6 1014.6 0.0
25/06:00pm 13.7 11.7 6.3 61 3.5 ENE 6 7 3 4 1014.3 1014.3 0.0
25/05:30pm 14.1 11.9 6.0 58 3.9 ENE 7 9 4 5 1014.1 1014.1 0.0
25/05:00pm 15.4 13.3 5.6 52 4.7 ENE 6 7 3 4 1014.0 1014.0 0.0
25/04:30pm 17.3 14.2 5.6 46 5.7 E 11 15 6 8 1013.9 1013.9 0.0
25/04:00pm 18.5 15.3 5.0 41 6.5 E 11 15 6 8 1013.9 1013.9 0.0
25/03:30pm 19.6 15.8 4.1 36 7.4 E 13 17 7 9 1013.8 1013.8 0.0
25/03:00pm 20.1 16.3 3.8 34 7.8 E 13 19 7 10 1014.0 1014.0 0.0
25/02:30pm 20.4 16.4 2.7 31 8.3 E 13 17 7 9 1014.0 1014.0 0.0
25/02:00pm 21.1 17.3 3.8 32 8.3 E 13 26 7 14 1014.0 1014.0 0.0
25/01:30pm 21.8 17.9 -1.5 21 10.1 SSW 9 13 5 7 1014.3 1014.3 0.0
25/01:00pm 21.6 18.2 -2.3 20 10.2 WNW 6 9 3 5 1014.9 1014.9 0.0
25/12:30pm 21.4 17.5 -1.2 22 9.9 WSW 9 15 5 8 1015.5 1015.5 0.0
25/12:00pm 20.4 16.2 -0.8 24 9.2 SW 11 17 6 9 1015.8 1015.8 0.0
25/11:30am 19.8 15.8 0.8 28 8.5 SW 11 17 6 9 1016.4 1016.4 0.0
25/11:00am 18.9 15.1 -0.5 27 8.4 WSW 9 13 5 7 1016.9 1016.9 0.0
25/10:30am 18.2 14.6 0.8 31 7.7 SW 9 13 5 7 1017.4 1017.4 0.0
25/10:00am 17.1 13.2 1.1 34 7.0 W 11 15 6 8 1017.7 1017.7 0.0
25/09:30am 15.6 12.0 2.7 42 5.8 WSW 11 15 6 8 1018.0 1018.0 0.0
25/09:00am 14.2 10.6 2.8 46 5.1 W 11 13 6 7 1018.0 1018.0 0.0
25/08:30am 12.8 9.4 4.0 55 4.0 WSW 11 13 6 7 1018.0 1018.0 0.0
25/08:00am 9.7 7.3 4.1 68 2.5 W 6 9 3 5 1017.8 1017.8 0.0
25/07:30am 10.6 6.9 2.4 57 3.5 WSW 11 11 6 6 1017.6 1017.6 0.0
25/07:00am 9.2 5.9 2.3 62 2.9 W 9 11 5 6 1017.4 1017.4 0.0
25/06:42am 8.1 5.3 3.2 71 2.1 WNW 7 11 4 6 1017.2 1017.2 0.0
25/06:30am 3.1 -0.1 -0.2 79 1.2 NNW 6 9 3 5 1017.2 1017.2 0.0
25/06:00am 6.8 3.7 1.1 67 2.3 W 7 11 4 6 1017.1 1017.1 0.0
25/05:41am 8.6 5.9 3.6 71 2.2 W 7 13 4 7 1016.9 1016.9 0.0
25/05:30am 3.5 1.1 0.0 78 1.3 NW 2 6 1 3 1016.9 1016.9 0.0
25/05:00am 5.2 2.2 1.7 78 1.4 NNW 7 9 4 5 1016.7 1016.7 0.0
25/04:30am 3.9 1.1 1.9 87 0.8 NE 6 7 3 4 1016.6 1016.6 0.0
25/04:00am 5.8 3.0 1.9 76 1.6 NNW 6 7 3 4 1016.3 1016.3 0.0
25/03:30am 4.3 1.2 1.3 81 1.2 N 7 7 4 4 1016.1 1016.1 0.0
25/03:07am 6.1 2.6 -1.3 59 2.8 WNW 7 13 4 7 1016.2 1016.2 0.0
25/03:00am 11.1 7.4 2.4 55 3.7 WNW 11 13 6 7 1016.2 1016.2 0.0
25/02:30am 6.6 3.7 1.7 71 2.0 NW 6 7 3 4 1016.6 1016.6 0.0
25/02:00am 6.5 3.7 2.0 73 1.8 NNE 6 7 3 4 1016.6 1016.6 0.0
25/01:30am 6.5 3.3 0.8 67 2.2 N 7 9 4 5 1016.9 1016.9 0.0
25/01:07am 6.7 3.3 -1.7 55 3.1 WSW 6 11 3 6 1016.8 1016.8 0.0
25/01:00am 12.5 9.1 1.8 48 4.6 WSW 9 11 5 6 1016.8 1016.8 0.0
25/12:30am 13.1 9.0 2.4 48 4.7 WSW 13 19 7 10 1016.8 1016.8 0.0
25/12:00am 9.3 6.6 2.6 63 2.8 WNW 6 13 3 7 1016.9 1016.9 0.0
 
Date/Time
EST
Temp
°C
App
Temp
°C
Dew
Point
Rel
Hum
%
Delta-T
°C
Wind Press
QNH
hPa
Press
MSL
hPa
Rain
since 9 am
mm
Dir
 
Spd
km/h
Gust
km/h
Spd
kts
Gust
kts
24/11:30pm 8.4 6.9 2.8 68 2.4 CALM 0 0 0 0 1016.8 1016.8 0.0
24/11:00pm 10.2 7.1 3.7 64 2.8 SW 9 11 5 6 1016.6 1016.6 0.0
24/10:30pm 12.0 8.9 3.5 56 3.8 WSW 9 11 5 6 1016.5 1016.5 0.0
24/10:00pm 13.2 9.6 2.7 49 4.6 WSW 11 15 6 8 1016.6 1016.6 0.0
24/09:30pm 13.0 11.0 4.4 56 3.9 W 4 11 2 6 1016.3 1016.3 0.0
24/09:00pm 9.8 8.4 3.8 66 2.6 CALM 0 0 0 0 1016.3 1016.3 0.0
24/08:30pm 7.6 4.6 1.9 67 2.3 NE 7 9 4 5 1016.0 1016.0 0.0
24/08:22pm 9.0 5.9 0.2 54 3.5 W 6 9 3 5 1015.9 1015.9 0.0
24/08:00pm 14.5 11.0 3.3 47 5.0 W 11 13 6 7 1015.8 1015.8 0.0
24/07:30pm 14.4 11.9 3.5 48 4.9 SSW 6 7 3 4 1015.8 1015.8 0.0
24/07:00pm 11.3 8.4 1.3 50 4.2 NNW 6 9 3 5 1015.4 1015.4 0.0
24/06:30pm 14.5 11.8 2.7 45 5.3 NW 6 7 3 4 1015.3 1015.3 0.0
24/06:00pm 13.6 10.7 1.6 44 5.2 NW 6 9 3 5 1015.1 1015.1 0.0
24/05:30pm 17.5 15.9 2.3 36 6.9 CALM 0 7 0 4 1014.6 1014.6 0.0
24/05:00pm 17.6 14.4 2.8 37 6.8 SE 9 9 5 5 1014.4 1014.4 0.0
24/04:30pm 21.4 18.3 1.1 26 9.3 WSW 7 11 4 6 1014.0 1014.0 0.0
24/04:00pm 21.8 18.2 0.9 25 9.5 WSW 9 15 5 8 1013.8 1013.8 0.0
24/03:30pm 22.2 17.4 0.1 23 10.0 W 15 19 8 10 1013.8 1013.8 0.0
24/03:00pm 22.4 18.0 0.3 23 10.0 W 13 20 7 11 1013.6 1013.6 0.0
24/02:30pm 22.0 16.8 -0.1 23 9.9 W 17 26 9 14 1013.7 1013.7 0.0
24/02:00pm 21.5 15.8 -0.5 23 9.7 WSW 19 26 10 14 1013.8 1013.8 0.0
24/01:30pm 21.6 17.3 0.8 25 9.5 W 13 26 7 14 1014.1 1014.1 0.0
24/01:00pm 20.8 16.3 -0.5 24 9.4 W 13 22 7 12 1014.5 1014.5 0.0
24/12:30pm 20.7 15.4 2.0 29 8.6 WNW 19 28 10 15 1015.2 1015.2 0.0
24/12:00pm 19.4 14.4 1.4 30 8.1 W 17 30 9 16 1016.0 1016.0 0.0
24/11:30am 18.7 13.0 0.8 30 7.9 W 20 32 11 17 1016.7 1016.7 0.0
24/11:00am 19.2 14.5 3.0 34 7.5 W 17 26 9 14 1017.7 1017.7 0.0
24/10:30am 18.0 13.0 1.5 33 7.4 WSW 17 24 9 13 1018.3 1018.3 0.0
24/10:00am 17.5 12.5 1.5 34 7.1 WSW 17 24 9 13 1018.4 1018.4 0.0
24/09:30am 16.6 11.6 1.1 35 6.8 W 17 26 9 14 1018.7 1018.7 0.0
24/09:00am 16.0 11.3 0.6 35 6.6 W 15 20 8 11 1018.7 1018.7 0.0
24/08:30am 14.9 10.3 1.8 41 5.7 WNW 15 20 8 11 1018.5 1018.5 0.0
24/08:00am 13.5 9.7 1.5 44 5.1 W 11 13 6 7 1018.5 1018.5 0.0
24/07:30am 12.4 8.9 1.1 46 4.8 WNW 9 13 5 7 1018.5 1018.5 0.0
24/07:00am 11.4 8.4 1.1 49 4.3 WNW 6 9 3 5 1018.5 1018.5 0.0
24/06:30am 11.6 7.7 1.0 48 4.4 WSW 11 15 6 8 1018.1 1018.1 0.0
24/06:00am 12.1 8.4 -0.1 43 5.0 NW 9 13 5 7 1017.8 1017.8 0.0
24/05:30am 13.5 9.9 0.9 42 5.3 WSW 9 13 5 7 1017.8 1017.8 0.0
24/05:00am 14.1 8.9 0.4 39 5.8 W 17 24 9 13 1017.3 1017.3 0.0
24/04:30am 14.2 9.0 0.1 38 5.9 W 17 22 9 12 1017.3 1017.3 0.0
24/04:00am 14.3 9.4 -0.2 37 6.0 W 15 22 8 12 1017.3 1017.3 0.0
24/03:30am 14.9 9.6 -0.4 35 6.4 W 17 24 9 13 1017.1 1017.1 0.0
24/03:00am 15.0 10.1 -0.3 35 6.4 W 15 22 8 12 1017.1 1017.1 0.0
24/02:30am 14.9 10.0 -0.4 35 6.4 WNW 15 19 8 10 1017.3 1017.3 0.0
24/02:00am 15.0 11.4 0.4 37 6.2 W 9 13 5 7 1017.3 1017.3 0.0
24/01:30am 15.7 11.2 -0.1 34 6.7 WNW 13 17 7 9 1017.0 1017.0 0.0
24/01:00am 16.7 11.9 -0.1 32 7.2 W 15 22 8 12 1017.1 1017.1 0.0
24/12:30am 16.8 12.3 0.0 32 7.2 W 13 19 7 10 1016.8 1016.8 0.0
24/12:00am 17.4 12.3 0.6 32 7.3 WSW 17 20 9 11 1016.9 1016.9 0.0
 
Date/Time
EST
Temp
°C
App
Temp
°C
Dew
Point
Rel
Hum
%
Delta-T
°C
Wind Press
QNH
hPa
Press
MSL
hPa
Rain
since 9 am
mm
Dir
 
Spd
km/h
Gust
km/h
Spd
kts
Gust
kts
23/11:30pm 17.8 13.4 0.5 31 7.6 WSW 13 19 7 10 1016.9 1016.9 0.0
23/11:00pm 17.7 13.8 1.2 33 7.3 WSW 11 15 6 8 1016.7 1016.7 0.0
23/10:30pm 18.5 14.7 1.5 32 7.6 WSW 11 15 6 8 1016.6 1016.6 0.0
23/10:00pm 19.4 14.5 2.3 32 7.9 WSW 17 24 9 13 1016.4 1016.4 0.0
23/09:30pm 19.6 15.2 4.9 38 7.1 WSW 17 26 9 14 1016.2 1016.2 0.0
23/09:00pm 20.7 16.4 5.1 36 7.6 WSW 17 22 9 12 1015.9 1015.9 0.0
23/08:30pm 21.6 17.0 6.7 38 7.6 WSW 20 33 11 18 1015.2 1015.2 0.0
23/08:00pm 22.2 16.3 7.6 39 7.6 SW 28 39 15 21 1014.9 1014.9 0.0
23/07:30pm 22.9 18.1 9.0 41 7.4 SW 24 32 13 17 1014.3 1014.3 0.0
23/07:00pm 23.0 19.6 11.1 47 6.6 SW 20 26 11 14 1013.8 1013.8 0.0
23/06:30pm 23.5 20.7 11.5 47 6.7 SW 17 26 9 14 1013.2 1013.2 0.0
23/06:00pm 23.3 21.9 11.0 46 6.8 SSW 9 11 5 6 1012.7 1012.7 0.0
23/05:30pm 25.0 23.7 10.1 39 8.2 WNW 7 9 4 5 1012.2 1012.2 0.0
23/05:00pm 25.8 23.3 9.6 36 8.9 W 13 20 7 11 1011.9 1011.9 0.0
23/04:30pm 26.4 23.9 9.7 35 9.2 WNW 13 20 7 11 1011.7 1011.7 0.0
23/04:00pm 27.1 24.3 9.9 34 9.6 WNW 15 22 8 12 1011.6 1011.6 0.0
23/03:30pm 27.8 23.2 9.6 32 10.1 WNW 24 32 13 17 1011.5 1011.5 0.0
23/03:00pm 28.9 24.3 9.6 30 10.8 WNW 24 35 13 19 1011.4 1011.4 0.0
23/02:30pm 28.9 25.2 9.6 30 10.8 W 19 33 10 18 1011.2 1011.2 0.0
23/02:00pm 28.8 25.1 9.5 30 10.8 W 19 28 10 15 1011.1 1011.1 0.0
23/01:30pm 29.1 25.4 9.3 29 11.0 WNW 19 35 10 19 1011.5 1011.5 0.0
23/01:00pm 28.4 24.7 9.6 31 10.5 W 19 26 10 14 1011.9 1011.9 0.0
23/12:30pm 28.2 24.4 9.9 32 10.2 WNW 20 28 11 15 1012.3 1012.3 0.0
23/12:00pm 27.9 24.3 10.6 34 9.8 WNW 20 30 11 16 1013.0 1013.0 0.0
23/11:30am 27.7 24.3 11.3 36 9.4 WNW 20 30 11 16 1013.7 1013.7 0.0
23/11:00am 26.9 23.2 11.4 38 8.8 NW 22 32 12 17 1014.5 1014.5 0.0
23/10:30am 25.3 23.2 13.5 48 6.9 NW 17 24 9 13 1015.5 1015.5 0.0
23/10:00am 23.7 22.3 13.3 52 6.0 WNW 13 19 7 10 1016.0 1016.0 0.0
23/09:30am 19.6 19.0 13.5 68 3.5 W 9 13 5 7 1016.4 1016.4 0.0
23/09:00am 17.1 16.3 12.8 76 2.4 WNW 9 11 5 6 1016.7 1016.7 0.0
23/08:30am 15.6 13.9 12.4 81 1.8 W 13 15 7 8 1016.9 1016.9 0.0
23/08:00am 14.3 13.4 12.5 89 1.0 W 9 13 5 7 1017.1 1017.1 0.0
23/07:30am 11.5 11.9 11.2 98 0.2 CALM 0 0 0 0 1017.2 1017.2 0.0
23/07:00am 12.2 11.6 11.6 96 0.3 W 6 9 3 5 1017.3 1017.3 0.0
23/06:30am 12.0 10.8 11.7 98 0.2 WNW 9 9 5 5 1017.3 1017.3 0.0
23/06:00am 11.7 11.0 11.5 99 0.1 SW 6 7 3 4 1017.4 1017.4 0.0
23/05:30am 11.5 10.6 11.3 99 0.1 WNW 7 9 4 5 1017.4 1017.4 0.0
23/05:00am 11.9 10.7 11.7 99 0.1 WNW 9 11 5 6 1017.4 1017.4 0.0
23/04:56am 11.3 10.0 11.1 99 0.1 WNW 9 11 5 6 1017.5 1017.5 0.0
23/04:30am 9.7 9.6 9.6 99 0.0 CALM 0 0 0 0 1017.6 1017.6 0.0
23/04:05am 10.3 10.4 10.1 99 0.1 CALM 0 0 0 0 1017.7 1017.7 0.0
23/04:00am 10.1 10.2 10.0 99 0.1 CALM 0 0 0 0 1017.7 1017.7 0.0
23/03:57am 10.9 11.1 10.7 99 0.1 CALM 0 0 0 0 1017.7 1017.7 0.0
23/03:47am 10.7 10.9 10.5 99 0.1 CALM 0 0 0 0 1017.8 1017.8 0.0
23/03:42am 10.2 10.3 10.1 99 0.1 CALM 0 0 0 0 1017.8 1017.8 0.0
23/03:30am 10.9 11.1 10.7 99 0.1 CALM 0 0 0 0 1017.9 1017.9 0.0
23/03:23am 10.7 10.9 10.5 99 0.1 CALM 0 0 0 0 1018.0 1018.0 0.0
23/03:22am 10.7 10.9 10.5 99 0.1 CALM 0 0 0 0 1018.0 1018.0 0.0
23/03:00am 10.5 10.6 10.3 99 0.1 CALM 0 0 0 0 1018.1 1018.1 0.0
23/02:47am 10.6 10.7 10.3 98 0.2 CALM 0 0 0 0 1018.2 1018.2 0.0
23/02:30am 10.7 10.9 10.5 99 0.1 CALM 0 0 0 0 1018.4 1018.4 0.0
23/02:02am 11.3 11.7 11.1 99 0.1 CALM 0 0 0 0 1018.6 1018.6 0.0
23/02:00am 11.2 11.5 11.0 99 0.1 CALM 0 0 0 0 1018.6 1018.6 0.0
23/01:30am 11.0 11.3 10.8 99 0.1 CALM 0 0 0 0 1018.6 1018.6 0.0
23/01:07am 11.9 12.4 11.7 99 0.1 CALM 0 0 0 0 1018.9 1018.9 0.0
23/01:00am 11.8 12.3 11.6 99 0.1 CALM 0 0 0 0 1019.0 1019.0 0.0
23/12:30am 12.4 13.1 12.2 99 0.1 CALM 0 0 0 0 1019.3 1019.3 0.0
23/12:18am 12.2 12.4 12.0 99 0.1 SW 2 6 1 3 1019.4 1019.4 0.0
23/12:14am 12.3 12.6 12.1 99 0.1 SW 2 6 1 3 1019.4 1019.4 0.0
23/12:00am 12.3 12.9 12.0 98 0.2 CALM 0 0 0 0 1019.4 1019.4 0.0
 
Date/Time
EST
Temp
°C
App
Temp
°C
Dew
Point
Rel
Hum
%
Delta-T
°C
Wind Press
QNH
hPa
Press
MSL
hPa
Rain
since 9 am
mm
Dir
 
Spd
km/h
Gust
km/h
Spd
kts
Gust
kts
22/11:53pm 11.7 12.0 10.9 95 0.4 CALM 0 0 0 0 1019.4 1019.4 0.0
22/11:43pm 12.5 13.1 12.0 97 0.3 CALM 0 0 0 0 1019.5 1019.5 0.0
22/11:33pm 12.3 12.9 12.0 98 0.2 CALM 0 0 0 0 1019.7 1019.7 0.0
22/11:30pm 12.6 13.4 12.4 99 0.1 CALM 0 0 0 0 1019.6 1019.6 0.0

Other Formats:

Comma delimited format used in spreadsheet applications
http://www.bom.gov.au/fwo/IDN60801/IDN60801.95784.axf

JavaScript Object Notation format (JSON) in row-major order
http://www.bom.gov.au/fwo/IDN60801/IDN60801.95784.json